¿Dónde queda Torre e Solar da Camoeira en Portugal?

Torre e Solar da Camoeira está situado en la región Evora en Portugal!

Buscar el nombre de una ciudad:

Torreón de Caña, Torråsen, Torre Mauro, Torres Vedras, Torre Montello

Aquí usted encontrará la ubicación de Torre e Solar da Camoeira en un mapa.
Para ver cómo se ve en la actualidad, a continuación hay algunas fotos de la región con cámaras web en línea.
También puede encontrar la distancia a las principales ciudades de la región y para las ciudades en el resto de Portugal.

Todos los lugares del mundo llamados .

new

¿Dónde queda Torre e Solar da Camoeira en el mapa?


Webcams cerca de Torre e Solar da Camoeira

Comporta: Distrito de - Praia do Carvalhal°.


Comporta: Distrito de - Praia do Carvalhal° - El día
Actuales
Comporta: Distrito de - Praia do Carvalhal° - Actuales

Sines Municipality: Praia de Sao Torpes.


Sines Municipality: Praia de Sao Torpes - El día
Actuales
Sines Municipality: Praia de Sao Torpes - Actuales

Benavente > North-East: AIrport, METAR: BENAV 180005Z 36004KT 17/14 Q1015.


Benavente > North-East: AIrport, METAR: BENAV 180005Z 36004KT 17/14 Q1015 - El día
Actuales
Benavente > North-East: AIrport, METAR: BENAV 180005Z 36004KT 17/14 Q1015 - Actuales

Webcams provided by webcams.travel

Distancias

¿Dónde queda Torre e Solar da Camoeira en relación con otros lugares?

Top 10 ciudades en Evora y la distancia de Torre e Solar da Camoeira.

Ciudad#Poblaciónkmmillas
Évora145851149
Montemor-o-Novo2128543220
Vendas Novas3112485031
Estremoz493495534
Reguengos de Monsaraz572173723
Redondo658454226
Vila Viçosa754846037
Borba845866037
Adaval9-3522
Agua d' Alte10-4528

Top 10 ciudades en Portugal y la distancia de Torre e Solar da Camoeira.

Ciudad # Poblaciónkmmillas
Lisbon151779810666
Porto2249630306190
Amadora317885611773
Braga4121393348216
Setúbal51171098251
Coimbra6106580200124
Queluz710339811773
Funchal8980411035643
Vila Nova de Gaia970810304189
Loures106623011471

Alertas y advertencias en Portugal

Asesoramiento e información sobre viajes y seguridad en Portugal

Con una advertencia de viaje, los turistas pueden ser informados de los riesgos de seguridad durante las vacaciones o de viaje en un país extranjero.Estar informado acerca de los riesgos de secuestro, robo a mano armada, atentados, catástrofes naturales o guerras. No saben qué áreas son seguras en Portugal. Estar alerta, o evitar ciertas áreas cuando está de vacaciones en Portugal.

Alertas y advertencias



Información de viajes Portugal

Información sobre documentos de viaje, solicitudes de visados y el costo de una visa.
Información de Contacto embajadas en Portugal.
Los diferentes tipos de seguro de viaje.

Información de viajes